Time;durP1;ratioP1;P1;durP2;ratioP2;P2;SDS_P1;SDS_P2;PMS_P1;PMS_P2;Temp;Humidity;BMP_temperature;BMP_pressure;BME280_temperature;BME280_humidity;BME280_pressure;Samples;Min_cycle;Max_cycle;Signal;HPM_P1;HPM_P2
2021/04/28 00:01:40;;;;;;;4.45;2.65;;;3.90;99.90;;;;;;5028171;28;20033;-53
2021/04/28 00:04:06;;;;;;;2.95;2.30;;;3.80;99.90;;;;;;5026253;28;20059;-53
2021/04/28 00:06:33;;;;;;;4.10;2.10;;;3.80;99.90;;;;;;5025134;28;20021;-54
2021/04/28 00:08:59;;;;;;;2.33;2.05;;;3.80;99.90;;;;;;5028123;28;20561;-52
2021/04/28 00:11:25;;;;;;;3.13;2.10;;;3.80;99.90;;;;;;5028087;28;20037;-53
2021/04/28 00:13:50;;;;;;;2.88;2.28;;;3.80;99.90;;;;;;5027461;28;20618;-53
2021/04/28 00:16:20;;;;;;;2.30;2.10;;;3.80;99.90;;;;;;5028034;28;20109;-53
2021/04/28 00:18:49;;;;;;;5.43;2.47;;;3.80;99.90;;;;;;5027826;28;20025;-54
2021/04/28 00:21:15;;;;;;;4.15;2.40;;;3.80;99.90;;;;;;5008487;28;20479;-48
2021/04/28 00:23:42;;;;;;;2.33;1.98;;;3.80;99.90;;;;;;5027643;28;20088;-49
2021/04/28 00:26:09;;;;;;;5.90;2.13;;;3.80;99.90;;;;;;5027899;28;20048;-55
2021/04/28 00:28:35;;;;;;;3.35;2.22;;;3.70;99.90;;;;;;5028612;28;20539;-51
2021/04/28 00:31:02;;;;;;;4.47;2.17;;;3.70;99.90;;;;;;5027038;28;20107;-48
2021/04/28 00:33:28;;;;;;;5.13;2.28;;;3.70;99.90;;;;;;5029112;28;20029;-53
2021/04/28 00:35:53;;;;;;;2.42;2.22;;;3.60;99.90;;;;;;5027704;28;20684;-53
2021/04/28 00:38:19;;;;;;;1.85;1.75;;;3.60;99.90;;;;;;5022915;28;20503;-51
2021/04/28 00:40:45;;;;;;;5.15;2.35;;;3.60;99.90;;;;;;5027120;28;20049;-52
2021/04/28 00:43:11;;;;;;;3.35;2.08;;;3.60;99.90;;;;;;5027616;28;20537;-55
2021/04/28 00:45:37;;;;;;;2.28;1.63;;;3.60;99.90;;;;;;5027885;28;20033;-52
2021/04/28 00:48:06;;;;;;;2.40;1.67;;;3.50;99.90;;;;;;5027320;28;20029;-50
2021/04/28 00:50:43;;;;;;;2.30;1.95;;;3.50;99.90;;;;;;5073712;28;20822;-50
2021/04/28 00:53:11;;;;;;;4.68;1.88;;;3.50;99.90;;;;;;5064477;28;20106;-49
2021/04/28 00:55:37;;;;;;;2.22;2.00;;;3.50;99.90;;;;;;5049899;28;20028;-51
2021/04/28 00:58:04;;;;;;;4.50;1.98;;;3.50;99.90;;;;;;5053040;28;20110;-51
2021/04/28 01:00:30;;;;;;;1.73;1.50;;;3.50;99.90;;;;;;5051227;28;20030;-53
2021/04/28 01:02:56;;;;;;;2.17;1.70;;;3.40;99.90;;;;;;5053199;28;20446;-51
2021/04/28 01:05:22;;;;;;;2.28;1.52;;;3.40;99.90;;;;;;5053802;28;20029;-54
2021/04/28 01:07:49;;;;;;;2.17;1.80;;;3.40;99.90;;;;;;5052058;28;20124;-52
2021/04/28 01:10:27;;;;;;;1.77;1.60;;;3.40;99.90;;;;;;5050618;28;20032;-50
2021/04/28 01:12:53;;;;;;;4.00;1.92;;;3.30;99.90;;;;;;5053180;28;20009;-49
2021/04/28 01:15:22;;;;;;;2.22;1.58;;;3.30;99.90;;;;;;5054345;28;20017;-48
2021/04/28 01:17:48;;;;;;;2.80;1.67;;;3.30;99.90;;;;;;5052404;28;20399;-54
2021/04/28 01:20:16;;;;;;;1.98;1.55;;;3.20;99.90;;;;;;5051714;28;20021;-50
2021/04/28 01:22:47;;;;;;;2.30;1.67;;;3.20;99.90;;;;;;5054297;28;20040;-53
2021/04/28 01:25:20;;;;;;;2.00;1.60;;;3.10;99.90;;;;;;5052822;28;20036;-53
2021/04/28 01:27:57;;;;;;;1.73;1.48;;;3.10;99.90;;;;;;5052428;28;20111;-51
2021/04/28 01:30:27;;;;;;;2.22;2.03;;;3.10;99.90;;;;;;5053537;28;20031;-55
2021/04/28 01:32:55;;;;;;;2.75;1.83;;;3.00;99.90;;;;;;5052163;28;20025;-53
2021/04/28 01:35:21;;;;;;;2.35;1.60;;;3.00;99.90;;;;;;5053419;28;20474;-54
2021/04/28 01:37:47;;;;;;;2.10;1.33;;;3.00;99.90;;;;;;5053105;28;20479;-53
2021/04/28 01:40:17;;;;;;;2.95;1.75;;;2.90;99.90;;;;;;5054095;28;20032;-55
2021/04/28 01:42:44;;;;;;;1.95;1.45;;;2.90;99.90;;;;;;5048715;28;20036;-54
2021/04/28 01:45:11;;;;;;;2.47;1.65;;;2.90;99.90;;;;;;5049288;28;20021;-52
2021/04/28 01:47:39;;;;;;;5.47;1.55;;;2.80;99.90;;;;;;5052693;28;20032;-51
2021/04/28 01:50:07;;;;;;;1.85;1.70;;;2.80;99.90;;;;;;5052709;28;20038;-53
2021/04/28 01:52:32;;;;;;;5.10;1.95;;;2.80;99.90;;;;;;5049438;28;20017;-51
2021/04/28 01:54:59;;;;;;;1.65;1.40;;;2.80;99.90;;;;;;5052094;28;20593;-49
2021/04/28 01:57:26;;;;;;;4.93;1.80;;;2.80;99.90;;;;;;5051706;28;20038;-50
2021/04/28 01:59:52;;;;;;;2.03;1.38;;;2.80;99.90;;;;;;5051398;28;20025;-55
2021/04/28 02:02:18;;;;;;;2.40;1.55;;;2.80;99.90;;;;;;5037998;28;20037;-50
2021/04/28 02:04:44;;;;;;;3.70;1.67;;;2.80;99.90;;;;;;5039969;28;20411;-52
2021/04/28 02:07:11;;;;;;;2.17;1.33;;;2.80;99.90;;;;;;5036008;28;20556;-50
2021/04/28 02:09:37;;;;;;;1.45;1.30;;;2.80;99.90;;;;;;5033308;28;20129;-53
2021/04/28 02:12:03;;;;;;;1.58;1.48;;;2.80;99.90;;;;;;5038773;28;20079;-50
2021/04/28 02:14:30;;;;;;;2.13;1.25;;;2.70;99.90;;;;;;5008861;22;20050;-78
2021/04/28 02:16:57;;;;;;;2.78;1.17;;;2.70;99.90;;;;;;4989187;28;20030;-76
2021/04/28 02:19:23;;;;;;;1.60;1.30;;;2.70;99.90;;;;;;4991030;28;20026;-77
2021/04/28 02:21:51;;;;;;;1.88;1.67;;;2.70;99.90;;;;;;4997002;28;20086;-78
2021/04/28 02:24:17;;;;;;;3.08;1.60;;;2.70;99.90;;;;;;5023051;28;20396;-78
2021/04/28 02:26:44;;;;;;;2.13;1.63;;;2.70;99.90;;;;;;5010485;28;20034;-78
2021/04/28 02:29:10;;;;;;;2.15;1.73;;;2.70;99.90;;;;;;5010737;28;20102;-77
2021/04/28 02:31:36;;;;;;;1.98;1.55;;;2.70;99.90;;;;;;5015812;28;20018;-77
2021/04/28 02:34:04;;;;;;;1.55;1.42;;;2.60;99.90;;;;;;5016095;28;20060;-76
2021/04/28 02:36:33;;;;;;;3.35;1.77;;;2.60;99.90;;;;;;5010506;28;20064;-78
2021/04/28 02:39:05;;;;;;;2.05;1.40;;;2.60;99.90;;;;;;5007037;28;20026;-78
2021/04/28 02:41:31;;;;;;;1.65;1.55;;;2.60;99.90;;;;;;5008733;28;20042;-78
2021/04/28 02:43:59;;;;;;;4.40;1.80;;;2.60;99.90;;;;;;5010794;28;20026;-76
2021/04/28 02:46:27;;;;;;;4.15;1.48;;;2.50;99.90;;;;;;5010739;28;20029;-77
2021/04/28 02:48:54;;;;;;;2.35;1.27;;;2.50;99.90;;;;;;5008027;28;20080;-79
2021/04/28 02:51:19;;;;;;;2.17;1.50;;;2.40;99.90;;;;;;5012843;28;20041;-80
2021/04/28 02:53:46;;;;;;;2.97;1.92;;;2.40;99.90;;;;;;5009446;28;20039;-78
2021/04/28 02:56:12;;;;;;;3.63;1.95;;;2.30;99.90;;;;;;5018270;28;20040;-79
2021/04/28 02:58:39;;;;;;;2.55;1.30;;;2.30;99.90;;;;;;5009590;28;20129;-80
2021/04/28 03:01:06;;;;;;;1.77;1.50;;;2.30;99.90;;;;;;5024745;28;20026;-78
2021/04/28 03:03:35;;;;;;;1.67;1.52;;;2.20;99.90;;;;;;5023852;28;20030;-78
2021/04/28 03:06:00;;;;;;;2.33;1.52;;;2.20;99.90;;;;;;5008406;28;20120;-80
2021/04/28 03:08:27;;;;;;;2.55;1.67;;;2.20;99.90;;;;;;5005007;28;20591;-79
2021/04/28 03:10:52;;;;;;;2.05;1.73;;;2.20;99.90;;;;;;5010014;28;20030;-79
2021/04/28 03:13:18;;;;;;;2.42;1.50;;;2.10;99.90;;;;;;5011778;28;20472;-79
2021/04/28 03:15:47;;;;;;;2.20;1.73;;;2.10;99.90;;;;;;5022515;28;20472;-80
2021/04/28 03:18:13;;;;;;;4.00;2.38;;;2.10;99.90;;;;;;5006135;28;20022;-79
2021/04/28 03:20:42;;;;;;;3.78;2.22;;;2.10;99.90;;;;;;5007026;28;20225;-78
2021/04/28 03:23:12;;;;;;;3.65;2.00;;;2.00;99.90;;;;;;5010016;28;20057;-79
2021/04/28 03:25:37;;;;;;;2.70;1.80;;;2.00;99.90;;;;;;5008582;28;20030;-79
2021/04/28 03:28:03;;;;;;;3.67;1.70;;;1.90;99.90;;;;;;5006006;28;20029;-79
2021/04/28 03:30:29;;;;;;;2.38;1.70;;;1.90;99.90;;;;;;5008263;28;20788;-80
2021/04/28 03:32:54;;;;;;;3.25;1.75;;;1.80;99.90;;;;;;5005479;28;20030;-78
2021/04/28 03:35:23;;;;;;;3.03;1.85;;;1.80;99.90;;;;;;5009629;28;20025;-78
2021/04/28 03:37:49;;;;;;;2.72;1.90;;;1.80;99.90;;;;;;5022559;28;20022;-79
2021/04/28 03:40:14;;;;;;;2.70;1.60;;;1.70;99.90;;;;;;5018390;28;20058;-79
2021/04/28 03:42:40;;;;;;;2.03;1.80;;;1.70;99.90;;;;;;5009026;28;20052;-79
2021/04/28 03:45:07;;;;;;;2.17;1.98;;;1.60;99.90;;;;;;5010142;28;20203;-79
2021/04/28 03:47:35;;;;;;;1.75;1.55;;;1.60;99.90;;;;;;5006165;28;20065;-80
2021/04/28 03:50:15;;;;;;;3.47;2.20;;;1.60;99.90;;;;;;5015779;28;20384;-82
2021/04/28 03:52:41;;;;;;;3.63;1.75;;;1.50;99.90;;;;;;5007354;28;20057;-80
2021/04/28 03:55:08;;;;;;;2.42;1.92;;;1.50;99.90;;;;;;5009245;28;20064;-79
2021/04/28 03:57:35;;;;;;;1.77;1.67;;;1.50;99.90;;;;;;5008892;28;20484;-78
2021/04/28 04:00:01;;;;;;;3.72;1.65;;;1.40;99.90;;;;;;5014610;28;20048;-79
2021/04/28 04:02:30;;;;;;;4.40;2.17;;;1.40;99.90;;;;;;5007141;28;20034;-80
2021/04/28 04:04:56;;;;;;;3.50;1.85;;;1.40;99.90;;;;;;5013915;28;20492;-78
2021/04/28 04:07:21;;;;;;;2.28;1.95;;;1.30;99.90;;;;;;5020794;28;20030;-79
2021/04/28 04:09:47;;;;;;;2.47;1.98;;;1.40;99.90;;;;;;5012483;28;20052;-79
2021/04/28 04:12:12;;;;;;;3.33;2.10;;;1.30;99.90;;;;;;5010250;28;20109;-78
2021/04/28 04:14:38;;;;;;;2.83;1.90;;;1.40;99.90;;;;;;5003842;28;20338;-78
2021/04/28 04:17:04;;;;;;;2.40;1.90;;;1.40;99.90;;;;;;5015857;28;20022;-79
2021/04/28 04:19:29;;;;;;;3.35;2.25;;;1.50;99.90;;;;;;5004362;28;20026;-78
2021/04/28 04:21:55;;;;;;;3.85;1.90;;;1.50;99.90;;;;;;5004012;28;20068;-79
2021/04/28 04:24:21;;;;;;;2.95;1.95;;;1.60;99.90;;;;;;5003641;28;20029;-78
2021/04/28 04:26:46;;;;;;;3.28;1.85;;;1.60;99.90;;;;;;5006173;28;20030;-78
2021/04/28 04:29:12;;;;;;;2.28;2.00;;;1.60;99.90;;;;;;5014755;28;20060;-78
2021/04/28 04:31:37;;;;;;;2.70;2.25;;;1.70;99.90;;;;;;5017280;28;20034;-78
2021/04/28 04:34:03;;;;;;;3.70;2.03;;;1.70;99.90;;;;;;5009412;28;20021;-78
2021/04/28 04:36:29;;;;;;;2.35;1.73;;;1.70;99.90;;;;;;5019702;28;20044;-78
2021/04/28 04:38:54;;;;;;;6.95;2.25;;;1.80;99.90;;;;;;5008879;28;20080;-78
2021/04/28 04:41:20;;;;;;;3.78;2.45;;;1.80;99.90;;;;;;5007737;28;20612;-79
2021/04/28 04:43:46;;;;;;;2.67;1.65;;;1.80;99.90;;;;;;5022616;28;20026;-78
2021/04/28 04:46:12;;;;;;;2.75;2.10;;;1.90;99.90;;;;;;5007619;28;20046;-78
2021/04/28 04:48:37;;;;;;;2.20;2.00;;;1.90;99.90;;;;;;5021461;28;20115;-78
2021/04/28 04:51:03;;;;;;;3.35;2.53;;;2.00;99.90;;;;;;5023504;28;20625;-78
2021/04/28 04:53:29;;;;;;;2.65;2.08;;;2.00;99.90;;;;;;5013538;28;20022;-78
2021/04/28 04:55:54;;;;;;;2.45;2.03;;;2.00;99.90;;;;;;5008208;28;20101;-79
2021/04/28 04:58:20;;;;;;;2.08;1.83;;;2.10;99.90;;;;;;5009286;28;20021;-79
2021/04/28 05:00:46;;;;;;;2.40;1.92;;;2.10;99.90;;;;;;5019613;28;20066;-80
2021/04/28 05:03:12;;;;;;;3.67;2.13;;;2.20;99.90;;;;;;5007724;28;20050;-80
2021/04/28 05:05:38;;;;;;;2.47;1.90;;;2.20;99.90;;;;;;5005342;28;20369;-80
2021/04/28 05:08:04;;;;;;;3.67;2.58;;;2.20;99.90;;;;;;5010149;28;20022;-79
2021/04/28 05:10:30;;;;;;;3.08;2.30;;;2.30;99.90;;;;;;5010026;28;20051;-79
2021/04/28 05:12:55;;;;;;;3.63;2.58;;;2.30;99.90;;;;;;5005326;28;20018;-79
2021/04/28 05:15:21;;;;;;;2.88;2.50;;;2.30;99.90;;;;;;5007167;28;20022;-79
2021/04/28 05:17:47;;;;;;;3.47;2.50;;;2.40;99.90;;;;;;5002852;28;20028;-79
2021/04/28 05:20:13;;;;;;;3.70;2.60;;;2.50;99.90;;;;;;5007691;28;20068;-79
2021/04/28 05:22:39;;;;;;;6.10;2.80;;;2.60;99.90;;;;;;5007094;28;20030;-80
2021/04/28 05:25:06;;;;;;;2.42;2.22;;;2.60;99.90;;;;;;5020422;28;20028;-80
2021/04/28 05:27:33;;;;;;;3.35;2.55;;;2.70;99.90;;;;;;5008722;28;20038;-80
2021/04/28 05:30:00;;;;;;;2.20;2.00;;;2.70;99.90;;;;;;5001122;28;20038;-81
2021/04/28 05:32:25;;;;;;;2.60;2.30;;;2.80;99.90;;;;;;5003693;28;20022;-78
2021/04/28 05:34:53;;;;;;;4.78;2.75;;;2.90;99.90;;;;;;5018852;28;20546;-77
2021/04/28 05:37:19;;;;;;;3.97;2.20;;;3.00;99.90;;;;;;5008961;28;20022;-77
2021/04/28 05:39:48;;;;;;;2.47;2.25;;;3.00;99.90;;;;;;5011270;28;20149;-79
2021/04/28 05:42:15;;;;;;;2.97;2.63;;;3.10;99.90;;;;;;5010501;28;20022;-79
2021/04/28 05:44:41;;;;;;;3.55;2.20;;;3.10;99.90;;;;;;5005937;28;20025;-79
2021/04/28 05:47:07;;;;;;;3.45;2.92;;;3.20;99.90;;;;;;5013166;28;20022;-80
2021/04/28 05:49:32;;;;;;;3.47;2.65;;;3.40;99.90;;;;;;5012629;28;20056;-79
2021/04/28 05:51:59;;;;;;;3.45;2.20;;;3.40;99.90;;;;;;5009171;28;20014;-81
2021/04/28 05:54:25;;;;;;;4.65;2.70;;;3.50;99.90;;;;;;5010367;28;20101;-79
2021/04/28 05:56:50;;;;;;;4.45;3.13;;;3.60;99.90;;;;;;5020485;28;20177;-79
2021/04/28 05:59:16;;;;;;;2.55;2.33;;;3.70;99.90;;;;;;5009375;28;20018;-81
2021/04/28 06:01:42;;;;;;;4.07;2.50;;;3.80;99.90;;;;;;5011807;28;20029;-79
2021/04/28 06:04:08;;;;;;;3.00;2.70;;;3.90;99.90;;;;;;5011471;28;20025;-77
2021/04/28 06:06:33;;;;;;;6.63;3.05;;;4.00;99.90;;;;;;5017828;28;20029;-77
2021/04/28 06:08:59;;;;;;;3.55;2.53;;;4.10;99.90;;;;;;5012165;28;20021;-78
2021/04/28 06:11:24;;;;;;;2.95;2.55;;;4.20;99.90;;;;;;5010881;28;20018;-79
2021/04/28 06:13:50;;;;;;;3.33;2.92;;;4.30;99.90;;;;;;5020732;28;20037;-78
2021/04/28 06:16:17;;;;;;;3.78;2.95;;;4.40;99.90;;;;;;5013356;28;20401;-78
2021/04/28 06:18:45;;;;;;;4.00;2.55;;;4.50;99.90;;;;;;5012181;28;20448;-78
2021/04/28 06:21:10;;;;;;;3.03;2.78;;;4.70;99.90;;;;;;5010506;28;20083;-78
2021/04/28 06:23:39;;;;;;;6.90;2.83;;;4.80;99.90;;;;;;5016338;28;20030;-79
2021/04/28 06:26:06;;;;;;;4.68;3.33;;;5.10;99.90;;;;;;5012571;28;20879;-79
2021/04/28 06:28:34;;;;;;;3.70;3.17;;;5.40;99.90;;;;;;5011722;28;20435;-79
2021/04/28 06:31:04;;;;;;;5.30;3.10;;;5.60;99.90;;;;;;5023847;28;20035;-79
2021/04/28 06:33:32;;;;;;;3.55;3.20;;;5.90;99.90;;;;;;5021397;28;20030;-80
2021/04/28 06:35:58;;;;;;;5.22;2.58;;;6.10;99.90;;;;;;5019155;28;20037;-79
2021/04/28 06:38:24;;;;;;;6.10;3.08;;;6.40;99.90;;;;;;5020544;28;20080;-79
2021/04/28 06:40:50;;;;;;;3.42;2.67;;;6.60;99.90;;;;;;5011419;28;20022;-79
2021/04/28 06:43:15;;;;;;;4.65;3.08;;;6.70;99.90;;;;;;5016564;28;20072;-79
2021/04/28 06:45:43;;;;;;;4.90;2.97;;;6.90;99.90;;;;;;5017906;28;20499;-79
2021/04/28 06:48:09;;;;;;;3.10;2.80;;;7.20;99.80;;;;;;5011940;28;20026;-79
2021/04/28 06:50:35;;;;;;;3.80;2.40;;;7.40;99.90;;;;;;5025295;28;20050;-78
2021/04/28 06:53:01;;;;;;;3.30;2.83;;;7.70;99.90;;;;;;5019318;28;20021;-79
2021/04/28 06:55:27;;;;;;;5.88;3.08;;;8.00;96.90;;;;;;5020789;28;20015;-79
2021/04/28 06:57:56;;;;;;;5.15;3.08;;;8.20;96.80;;;;;;5012982;28;20049;-79
2021/04/28 07:00:24;;;;;;;5.50;3.10;;;8.40;95.50;;;;;;5021452;28;20029;-81
2021/04/28 07:02:50;;;;;;;2.67;2.33;;;8.60;95.20;;;;;;5012440;28;20022;-80
2021/04/28 07:05:16;;;;;;;3.20;2.83;;;8.90;95.50;;;;;;5012388;28;20033;-80
2021/04/28 07:07:45;;;;;;;2.83;2.53;;;9.20;93.40;;;;;;5007593;28;20057;-79
2021/04/28 07:10:11;;;;;;;4.45;3.50;;;9.40;95.50;;;;;;5007930;28;20049;-78
2021/04/28 07:12:37;;;;;;;5.50;3.15;;;9.70;92.80;;;;;;5010106;28;20022;-78
2021/04/28 07:15:03;;;;;;;3.78;2.70;;;10.00;90.50;;;;;;5021287;28;20041;-78
2021/04/28 07:17:29;;;;;;;4.00;2.95;;;10.10;92.30;;;;;;5025403;28;20018;-78
2021/04/28 07:19:54;;;;;;;3.15;2.75;;;10.30;89.60;;;;;;5009799;28;20048;-79
2021/04/28 07:22:24;;;;;;;5.32;2.78;;;10.50;85.70;;;;;;5025419;28;20033;-79
2021/04/28 07:24:49;;;;;;;6.97;3.05;;;10.70;90.00;;;;;;5023968;28;20034;-79
2021/04/28 07:30:23;;;;;;;4.10;2.63;;;11.10;79.60;;;;;;4987943;28;20026;-81
2021/04/28 07:32:50;;;;;;;4.95;3.35;;;11.20;78.00;;;;;;4977327;28;20033;-79
2021/04/28 07:35:18;;;;;;;4.00;3.13;;;11.30;76.30;;;;;;5004081;28;20065;-80
2021/04/28 07:37:46;;;;;;;5.47;2.80;;;11.20;74.60;;;;;;5008209;28;20412;-81
2021/04/28 07:40:12;;;;;;;3.72;3.03;;;11.30;75.50;;;;;;5024949;28;20029;-79
2021/04/28 07:42:38;;;;;;;3.03;2.72;;;11.50;71.80;;;;;;5020632;28;20022;-81
2021/04/28 07:45:05;;;;;;;3.67;3.25;;;11.50;72.70;;;;;;5012082;28;20022;-78
2021/04/28 07:47:31;;;;;;;4.25;3.33;;;11.60;70.80;;;;;;5026219;28;20121;-80
2021/04/28 07:49:56;;;;;;;5.15;3.40;;;11.60;69.70;;;;;;5009312;28;20112;-78
2021/04/28 07:52:22;;;;;;;4.30;3.03;;;11.70;69.60;;;;;;5011341;28;20049;-77
2021/04/28 07:54:47;;;;;;;3.60;3.05;;;11.90;69.80;;;;;;5007528;28;20132;-78
2021/04/28 07:57:14;;;;;;;2.55;2.35;;;12.00;66.70;;;;;;5011272;28;20022;-81
2021/04/28 07:59:40;;;;;;;6.18;3.20;;;12.10;67.20;;;;;;5005856;28;20026;-80
2021/04/28 08:02:06;;;;;;;3.72;2.67;;;12.10;67.80;;;;;;5011349;28;20026;-79
2021/04/28 08:04:31;;;;;;;3.60;3.13;;;12.30;69.90;;;;;;5011366;28;20484;-80
2021/04/28 08:06:57;;;;;;;3.83;3.13;;;12.60;69.30;;;;;;5010096;28;20026;-79
2021/04/28 08:09:23;;;;;;;7.07;3.40;;;13.10;63.50;;;;;;5009507;28;20030;-78
2021/04/28 08:11:48;;;;;;;4.05;3.35;;;13.20;60.30;;;;;;5011474;28;20026;-79
2021/04/28 08:14:14;;;;;;;3.72;3.35;;;13.30;61.30;;;;;;5009153;28;20037;-81
2021/04/28 08:16:39;;;;;;;4.07;3.55;;;13.40;57.20;;;;;;5014685;28;20157;-80
2021/04/28 08:19:05;;;;;;;4.68;3.53;;;13.40;59.60;;;;;;5011160;28;20041;-78
2021/04/28 08:21:31;;;;;;;4.45;3.50;;;13.50;58.20;;;;;;5012103;28;20037;-79
2021/04/28 08:23:57;;;;;;;4.57;3.78;;;13.60;58.40;;;;;;5009903;28;20056;-81
2021/04/28 08:26:22;;;;;;;5.68;3.22;;;13.70;56.40;;;;;;5010627;28;20057;-76
2021/04/28 08:28:49;;;;;;;5.00;3.53;;;13.90;56.10;;;;;;5009787;28;20093;-81
2021/04/28 08:31:19;;;;;;;4.50;3.90;;;14.00;55.40;;;;;;5011670;28;20080;-80
2021/04/28 08:33:45;;;;;;;3.85;3.47;;;14.10;55.50;;;;;;5009982;28;20033;-80
2021/04/28 08:36:15;;;;;;;6.40;3.67;;;14.10;52.10;;;;;;5011556;28;20017;-81
2021/04/28 08:38:41;;;;;;;4.22;3.80;;;14.10;53.70;;;;;;5008943;28;20022;-78
2021/04/28 08:41:09;;;;;;;4.28;3.88;;;14.20;54.40;;;;;;5022746;28;20068;-79
2021/04/28 08:43:35;;;;;;;7.28;3.80;;;14.20;50.70;;;;;;5008966;28;20026;-79
2021/04/28 08:46:02;;;;;;;3.70;3.35;;;13.90;51.70;;;;;;5007663;28;20053;-78
2021/04/28 08:48:31;;;;;;;4.60;3.35;;;14.00;51.40;;;;;;5011763;28;20030;-79
2021/04/28 08:50:58;;;;;;;4.22;3.45;;;14.00;50.70;;;;;;5008724;28;20014;-78
2021/04/28 08:53:27;;;;;;;3.97;3.58;;;13.90;52.70;;;;;;5007072;28;20024;-79
2021/04/28 08:55:53;;;;;;;4.47;3.60;;;14.10;51.90;;;;;;5010975;28;20026;-81
2021/04/28 08:58:20;;;;;;;4.25;3.50;;;14.30;52.10;;;;;;5015008;28;20040;-80
2021/04/28 09:00:46;;;;;;;4.95;3.60;;;14.50;50.10;;;;;;5010047;28;20026;-80
2021/04/28 09:03:12;;;;;;;3.65;3.30;;;14.60;49.20;;;;;;5009708;28;20029;-78
2021/04/28 09:05:38;;;;;;;3.97;3.50;;;14.70;48.00;;;;;;5015883;28;20022;-78
2021/04/28 09:08:11;;;;;;;3.83;3.08;;;14.90;47.10;;;;;;5017114;28;20492;-78
2021/04/28 09:10:39;;;;;;;5.82;4.00;;;15.00;45.80;;;;;;5011333;28;20030;-77
2021/04/28 09:13:09;;;;;;;4.22;3.50;;;15.00;46.70;;;;;;5014197;28;20030;-78
2021/04/28 09:15:52;;;;;;;6.32;3.78;;;15.00;47.00;;;;;;5015063;28;20018;-77
2021/04/28 09:18:33;;;;;;;4.20;3.75;;;15.00;46.90;;;;;;5017924;28;20372;-78
2021/04/28 09:20:59;;;;;;;3.67;3.20;;;15.20;48.10;;;;;;5017871;28;20117;-78
2021/04/28 09:23:35;;;;;;;3.92;3.50;;;15.10;46.10;;;;;;5015314;28;20056;-77
2021/04/28 09:26:03;;;;;;;4.72;3.92;;;15.10;43.80;;;;;;5018304;28;20018;-75
2021/04/28 09:28:33;;;;;;;4.65;4.10;;;15.20;46.10;;;;;;5018972;28;20022;-77
2021/04/28 09:31:08;;;;;;;3.90;3.50;;;15.30;47.40;;;;;;5015427;28;20022;-78
2021/04/28 09:33:57;;;;;;;4.30;3.90;;;15.30;46.40;;;;;;5016116;28;20053;-80
2021/04/28 09:36:34;;;;;;;4.03;3.60;;;15.30;47.30;;;;;;5020668;28;20034;-80
2021/04/28 09:39:05;;;;;;;4.85;3.13;;;15.30;47.40;;;;;;5015986;28;20053;-79
2021/04/28 09:41:38;;;;;;;4.47;3.97;;;15.40;48.00;;;;;;5013514;28;20026;-78
2021/04/28 09:44:19;;;;;;;6.13;3.90;;;15.70;45.10;;;;;;5012935;28;20038;-78
2021/04/28 09:47:05;;;;;;;4.60;3.92;;;15.80;43.80;;;;;;5014897;28;20018;-77
2021/04/28 09:49:54;;;;;;;5.15;4.00;;;15.70;45.00;;;;;;5012427;28;20413;-78
2021/04/28 09:52:22;;;;;;;5.30;3.65;;;15.70;45.50;;;;;;5012246;28;20026;-78
2021/04/28 09:54:52;;;;;;;4.30;3.90;;;15.90;44.70;;;;;;5010620;28;20026;-78
2021/04/28 09:57:32;;;;;;;4.85;3.42;;;15.80;43.30;;;;;;5013945;28;20042;-79
2021/04/28 09:59:57;;;;;;;3.95;3.50;;;15.60;45.20;;;;;;5011855;28;20057;-78
2021/04/28 10:02:28;;;;;;;6.78;3.30;;;15.60;45.00;;;;;;5005319;28;20922;-78
2021/04/28 10:05:20;;;;;;;4.07;3.53;;;15.70;45.60;;;;;;5013707;28;20053;-78
2021/04/28 10:07:46;;;;;;;5.90;3.97;;;15.80;43.50;;;;;;5017229;28;20041;-78
2021/04/28 10:10:13;;;;;;;5.72;3.45;;;15.50;43.30;;;;;;5013656;28;20030;-78
2021/04/28 10:12:39;;;;;;;4.57;3.38;;;15.50;44.60;;;;;;5014430;28;20113;-78
2021/04/28 10:15:06;;;;;;;3.60;3.30;;;15.80;44.70;;;;;;5013818;28;20026;-78
2021/04/28 10:17:35;;;;;;;5.78;3.80;;;15.90;43.60;;;;;;5014214;28;20099;-79
2021/04/28 10:20:00;;;;;;;4.45;3.35;;;16.00;44.60;;;;;;5012707;28;20856;-79
2021/04/28 10:22:26;;;;;;;3.97;3.67;;;16.20;44.20;;;;;;5012378;28;20018;-79
2021/04/28 10:24:56;;;;;;;3.72;3.38;;;16.30;41.70;;;;;;5012849;28;20034;-80
2021/04/28 10:27:22;;;;;;;3.47;3.17;;;16.00;42.50;;;;;;5011950;28;20029;-78
2021/04/28 10:29:50;;;;;;;5.07;3.75;;;15.90;43.30;;;;;;5016727;28;20021;-79
2021/04/28 10:32:18;;;;;;;4.43;3.70;;;16.10;42.90;;;;;;5021737;28;20068;-78
2021/04/28 10:35:01;;;;;;;5.22;3.95;;;16.10;43.60;;;;;;5010289;28;20148;-79
2021/04/28 10:37:32;;;;;;;4.32;3.90;;;16.20;42.50;;;;;;5010813;28;20435;-80
2021/04/28 10:39:58;;;;;;;4.97;3.97;;;16.30;42.80;;;;;;5011773;28;20030;-80
2021/04/28 10:42:25;;;;;;;4.30;3.83;;;16.40;42.70;;;;;;5014071;28;20535;-79
2021/04/28 10:44:51;;;;;;;4.82;3.90;;;16.70;43.50;;;;;;5012914;28;20030;-80
2021/04/28 10:47:35;;;;;;;6.10;3.72;;;16.80;43.90;;;;;;5014264;28;20384;-81
2021/04/28 10:50:14;;;;;;;5.68;3.97;;;16.90;44.70;;;;;;5012519;28;20022;-78
2021/04/28 10:52:44;;;;;;;4.90;4.40;;;16.90;43.40;;;;;;5028051;28;20022;-80
2021/04/28 10:55:37;;;;;;;5.13;3.65;;;16.80;43.80;;;;;;5013492;28;20022;-79
2021/04/28 10:58:04;;;;;;;5.47;4.80;;;17.10;45.30;;;;;;5007000;28;20030;-78
2021/04/28 11:00:30;;;;;;;4.47;3.88;;;17.30;45.30;;;;;;5014774;28;20037;-78
2021/04/28 11:02:55;;;;;;;7.55;4.72;;;17.40;45.70;;;;;;5012966;28;20034;-78
2021/04/28 11:05:31;;;;;;;4.68;3.67;;;17.40;42.50;;;;;;5012670;28;20018;-79
2021/04/28 11:07:58;;;;;;;6.13;4.47;;;17.40;42.20;;;;;;5012620;28;20421;-81
2021/04/28 11:10:32;;;;;;;6.32;4.53;;;17.40;43.20;;;;;;5014888;28;20030;-78
2021/04/28 11:13:14;;;;;;;5.75;5.00;;;17.60;44.40;;;;;;5010473;28;20060;-78
2021/04/28 11:15:43;;;;;;;4.88;4.45;;;17.70;42.40;;;;;;5011435;28;20018;-80
2021/04/28 11:18:30;;;;;;;5.53;4.57;;;17.50;43.00;;;;;;5012985;28;20104;-79
2021/04/28 11:21:18;;;;;;;5.18;4.75;;;17.60;46.00;;;;;;5017892;28;20550;-79
2021/04/28 11:24:09;;;;;;;7.13;4.70;;;17.70;44.10;;;;;;5027119;28;20393;-80
2021/04/28 11:26:45;;;;;;;5.38;4.88;;;17.80;43.40;;;;;;5007929;28;20033;-80
2021/04/28 11:29:12;;;;;;;5.78;4.63;;;18.00;44.50;;;;;;5011162;28;20029;-79
2021/04/28 11:31:42;;;;;;;6.22;4.78;;;18.20;43.60;;;;;;5006180;28;20053;-79
2021/04/28 11:34:33;;;;;;;6.25;5.60;;;18.10;43.00;;;;;;5007161;28;20014;-79
2021/04/28 11:37:09;;;;;;;6.75;4.72;;;18.00;41.70;;;;;;5010749;28;20152;-79
2021/04/28 11:39:46;;;;;;;8.05;5.50;;;18.10;43.70;;;;;;5008069;28;20033;-80
2021/04/28 11:42:19;;;;;;;5.28;4.78;;;18.20;42.90;;;;;;5007809;28;20096;-79
2021/04/28 11:44:50;;;;;;;7.05;4.75;;;18.40;42.60;;;;;;5008938;28;20095;-80
2021/04/28 11:47:24;;;;;;;7.70;5.28;;;18.60;42.80;;;;;;5007898;28;20025;-80
2021/04/28 11:49:52;;;;;;;7.50;5.15;;;18.80;41.50;;;;;;5007586;28;20056;-80
2021/04/28 11:52:21;;;;;;;8.52;5.50;;;18.80;41.40;;;;;;5009852;28;20018;-79
2021/04/28 11:54:53;;;;;;;5.38;4.88;;;18.80;42.20;;;;;;5009843;28;20022;-79
2021/04/28 11:57:27;;;;;;;7.88;4.93;;;18.70;42.80;;;;;;5009514;28;20017;-77
2021/04/28 12:00:04;;;;;;;5.72;5.22;;;18.80;43.10;;;;;;5008955;28;20025;-77
2021/04/28 12:02:30;;;;;;;5.93;5.32;;;18.90;41.90;;;;;;5008378;28;20125;-79
2021/04/28 12:04:55;;;;;;;5.85;5.13;;;19.00;42.90;;;;;;5023289;28;20136;-79
2021/04/28 12:07:21;;;;;;;6.85;5.40;;;19.10;42.40;;;;;;5007610;28;20113;-78
2021/04/28 12:09:48;;;;;;;6.05;5.40;;;19.20;42.00;;;;;;5008448;28;20022;-80
2021/04/28 12:12:16;;;;;;;6.22;5.63;;;19.10;40.80;;;;;;5008393;28;20029;-81
2021/04/28 12:14:48;;;;;;;5.93;5.03;;;18.90;43.40;;;;;;5007971;28;20036;-79
2021/04/28 12:17:19;;;;;;;6.60;5.88;;;19.00;43.20;;;;;;5023466;28;20399;-79
2021/04/28 12:19:47;;;;;;;5.85;5.25;;;19.10;42.20;;;;;;5008032;28;20204;-79
2021/04/28 12:22:12;;;;;;;6.50;5.10;;;19.20;42.30;;;;;;5007308;28;20373;-80
2021/04/28 12:24:50;;;;;;;6.03;5.50;;;19.30;41.10;;;;;;5006570;28;20032;-80
2021/04/28 12:27:21;;;;;;;6.97;5.63;;;19.20;40.90;;;;;;5006740;28;20378;-77
2021/04/28 12:29:57;;;;;;;8.68;5.78;;;19.10;41.30;;;;;;5006256;28;20101;-78
2021/04/28 12:32:32;;;;;;;9.40;5.78;;;19.10;40.80;;;;;;5007966;28;20884;-78
2021/04/28 12:35:14;;;;;;;7.22;5.78;;;18.90;40.30;;;;;;5006904;28;20026;-81
2021/04/28 12:37:56;;;;;;;7.05;5.53;;;18.70;41.70;;;;;;5008677;28;20583;-79
2021/04/28 12:40:32;;;;;;;6.82;6.10;;;18.50;40.90;;;;;;5007857;28;20026;-78
2021/04/28 12:42:58;;;;;;;11.80;5.55;;;18.40;41.60;;;;;;5007569;28;20024;-79
2021/04/28 12:45:24;;;;;;;6.50;5.55;;;18.30;43.70;;;;;;5006488;28;20026;-78
2021/04/28 12:47:50;;;;;;;8.60;6.13;;;18.30;42.50;;;;;;5006650;28;20704;-78
2021/04/28 12:50:24;;;;;;;5.88;5.03;;;18.50;42.40;;;;;;5006722;28;20022;-78
2021/04/28 12:52:50;;;;;;;7.97;5.18;;;18.70;41.70;;;;;;5023149;28;20026;-77
2021/04/28 12:55:35;;;;;;;8.25;5.78;;;18.70;41.70;;;;;;5005993;28;20436;-77
2021/04/28 12:58:02;;;;;;;9.63;6.10;;;18.90;41.10;;;;;;5006250;28;20022;-79
2021/04/28 13:00:31;;;;;;;19.55;6.80;;;19.00;40.90;;;;;;5006155;28;20029;-77
2021/04/28 13:03:22;;;;;;;6.70;5.75;;;19.00;41.50;;;;;;5006572;28;20543;-80